sensor_id;sensor_type;location;lat;lon;timestamp;pressure;altitude;pressure_sealevel;temperature;humidity
68320;BME280;55168;51.120;17.024;2023-02-18T00:00:00;99870;;;7.6;100.0
68320;BME280;55168;51.120;17.024;2023-02-18T00:01:00;99870;;;7.6;100.0
68320;BME280;55168;51.120;17.024;2023-02-18T00:02:00;99860;;;7.5;100.0
68320;BME280;55168;51.120;17.024;2023-02-18T00:03:00;99870;;;7.5;100.0
68320;BME280;55168;51.120;17.024;2023-02-18T00:04:00;99870;;;7.5;100.0
68320;BME280;55168;51.120;17.024;2023-02-18T00:05:00;99870;;;7.5;100.0
68320;BME280;55168;51.120;17.024;2023-02-18T00:06:00;99870;;;7.5;100.0
68320;BME280;55168;51.120;17.024;2023-02-18T00:07:00;99870;;;7.5;100.0
68320;BME280;55168;51.120;17.024;2023-02-18T00:08:00;99850;;;7.5;100.0
68320;BME280;55168;51.120;17.024;2023-02-18T00:09:00;99860;;;7.5;100.0
68320;BME280;55168;51.120;17.024;2023-02-18T00:10:00;99870;;;7.5;100.0
68320;BME280;55168;51.120;17.024;2023-02-18T00:11:00;99870;;;7.5;100.0
68320;BME280;55168;51.120;17.024;2023-02-18T00:12:00;99860;;;7.5;100.0
68320;BME280;55168;51.120;17.024;2023-02-18T00:13:00;99870;;;7.5;100.0
68320;BME280;55168;51.120;17.024;2023-02-18T00:14:01;99870;;;7.4;100.0
68320;BME280;55168;51.120;17.024;2023-02-18T00:15:00;99860;;;7.4;100.0
68320;BME280;55168;51.120;17.024;2023-02-18T00:16:01;99860;;;7.4;100.0
68320;BME280;55168;51.120;17.024;2023-02-18T00:17:00;99870;;;7.4;100.0
68320;BME280;55168;51.120;17.024;2023-02-18T00:18:00;99870;;;7.3;100.0
68320;BME280;55168;51.120;17.024;2023-02-18T00:19:01;99870;;;7.3;100.0
68320;BME280;55168;51.120;17.024;2023-02-18T00:20:00;99860;;;7.3;100.0
68320;BME280;55168;51.120;17.024;2023-02-18T00:21:02;99850;;;7.3;100.0
68320;BME280;55168;51.120;17.024;2023-02-18T00:22:00;99860;;;7.3;100.0
68320;BME280;55168;51.120;17.024;2023-02-18T00:23:00;99870;;;7.2;100.0
68320;BME280;55168;51.120;17.024;2023-02-18T00:24:00;99860;;;7.2;100.0
68320;BME280;55168;51.120;17.024;2023-02-18T00:25:00;99870;;;7.2;100.0
68320;BME280;55168;51.120;17.024;2023-02-18T00:26:02;99870;;;7.2;100.0
68320;BME280;55168;51.120;17.024;2023-02-18T00:27:00;99870;;;7.2;100.0
68320;BME280;55168;51.120;17.024;2023-02-18T00:28:00;99880;;;7.1;100.0
68320;BME280;55168;51.120;17.024;2023-02-18T00:29:00;99870;;;7.1;100.0
68320;BME280;55168;51.120;17.024;2023-02-18T00:30:00;99880;;;7.1;100.0
68320;BME280;55168;51.120;17.024;2023-02-18T00:31:08;99880;;;7.1;100.0
68320;BME280;55168;51.120;17.024;2023-02-18T00:32:00;99880;;;7.1;100.0
68320;BME280;55168;51.120;17.024;2023-02-18T00:33:00;99870;;;7.0;100.0
68320;BME280;55168;51.120;17.024;2023-02-18T00:34:00;99880;;;7.0;100.0
68320;BME280;55168;51.120;17.024;2023-02-18T00:35:00;99880;;;7.0;100.0
68320;BME280;55168;51.120;17.024;2023-02-18T00:36:01;99890;;;7.0;100.0
68320;BME280;55168;51.120;17.024;2023-02-18T00:37:00;99880;;;7.0;100.0
68320;BME280;55168;51.120;17.024;2023-02-18T00:38:00;99880;;;7.0;100.0
68320;BME280;55168;51.120;17.024;2023-02-18T00:39:00;99890;;;6.9;100.0
68320;BME280;55168;51.120;17.024;2023-02-18T00:40:00;99890;;;6.9;100.0
68320;BME280;55168;51.120;17.024;2023-02-18T00:41:00;99890;;;6.9;100.0
68320;BME280;55168;51.120;17.024;2023-02-18T00:42:00;99890;;;6.8;100.0
68320;BME280;55168;51.120;17.024;2023-02-18T00:43:00;99890;;;6.8;100.0
68320;BME280;55168;51.120;17.024;2023-02-18T00:44:00;99890;;;6.8;100.0
68320;BME280;55168;51.120;17.024;2023-02-18T00:45:00;99880;;;6.8;100.0
68320;BME280;55168;51.120;17.024;2023-02-18T00:46:00;99890;;;6.8;100.0
68320;BME280;55168;51.120;17.024;2023-02-18T00:47:00;99900;;;6.9;100.0
68320;BME280;55168;51.120;17.024;2023-02-18T00:48:00;99900;;;6.9;100.0
68320;BME280;55168;51.120;17.024;2023-02-18T00:49:00;99890;;;6.9;100.0
68320;BME280;55168;51.120;17.024;2023-02-18T00:50:00;99900;;;6.9;100.0
68320;BME280;55168;51.120;17.024;2023-02-18T00:51:00;99900;;;6.9;100.0
68320;BME280;55168;51.120;17.024;2023-02-18T00:52:00;99880;;;6.8;100.0
68320;BME280;55168;51.120;17.024;2023-02-18T00:53:00;99890;;;6.9;100.0
68320;BME280;55168;51.120;17.024;2023-02-18T00:54:00;99890;;;6.8;100.0
68320;BME280;55168;51.120;17.024;2023-02-18T00:55:00;99900;;;6.8;100.0
68320;BME280;55168;51.120;17.024;2023-02-18T00:56:00;99900;;;6.8;100.0
68320;BME280;55168;51.120;17.024;2023-02-18T00:57:00;99900;;;6.8;100.0
68320;BME280;55168;51.120;17.024;2023-02-18T00:58:00;99900;;;6.7;100.0
68320;BME280;55168;51.120;17.024;2023-02-18T00:59:00;99890;;;6.7;100.0
68320;BME280;55168;51.120;17.024;2023-02-18T01:00:00;99890;;;6.7;100.0
68320;BME280;55168;51.120;17.024;2023-02-18T01:01:00;99900;;;6.7;100.0
68320;BME280;55168;51.120;17.024;2023-02-18T01:02:00;99890;;;6.7;100.0
68320;BME280;55168;51.120;17.024;2023-02-18T01:03:00;99890;;;6.7;100.0
68320;BME280;55168;51.120;17.024;2023-02-18T01:04:00;99900;;;6.6;100.0
68320;BME280;55168;51.120;17.024;2023-02-18T01:05:00;99900;;;6.6;100.0
68320;BME280;55168;51.120;17.024;2023-02-18T01:06:00;99900;;;6.6;100.0
68320;BME280;55168;51.120;17.024;2023-02-18T01:07:00;99900;;;6.7;100.0
68320;BME280;55168;51.120;17.024;2023-02-18T01:08:00;99900;;;6.7;100.0
68320;BME280;55168;51.120;17.024;2023-02-18T01:09:00;99900;;;6.7;100.0
68320;BME280;55168;51.120;17.024;2023-02-18T01:10:00;99900;;;6.7;100.0
68320;BME280;55168;51.120;17.024;2023-02-18T01:11:00;99900;;;6.7;100.0
68320;BME280;55168;51.120;17.024;2023-02-18T01:12:00;99900;;;6.7;100.0
68320;BME280;55168;51.120;17.024;2023-02-18T01:13:00;99900;;;6.7;100.0
68320;BME280;55168;51.120;17.024;2023-02-18T01:14:00;99900;;;6.6;100.0
68320;BME280;55168;51.120;17.024;2023-02-18T01:15:00;99900;;;6.6;100.0
68320;BME280;55168;51.120;17.024;2023-02-18T01:16:00;99900;;;6.6;100.0
68320;BME280;55168;51.120;17.024;2023-02-18T01:17:00;99910;;;6.6;100.0
68320;BME280;55168;51.120;17.024;2023-02-18T01:18:00;99910;;;6.6;100.0
68320;BME280;55168;51.120;17.024;2023-02-18T01:19:00;99910;;;6.5;100.0
68320;BME280;55168;51.120;17.024;2023-02-18T01:20:00;99910;;;6.5;100.0
68320;BME280;55168;51.120;17.024;2023-02-18T01:21:00;99910;;;6.5;100.0
68320;BME280;55168;51.120;17.024;2023-02-18T01:22:00;99910;;;6.5;100.0
68320;BME280;55168;51.120;17.024;2023-02-18T01:23:00;99910;;;6.5;100.0
68320;BME280;55168;51.120;17.024;2023-02-18T01:24:00;99910;;;6.5;100.0
68320;BME280;55168;51.120;17.024;2023-02-18T01:25:00;99900;;;6.5;100.0
68320;BME280;55168;51.120;17.024;2023-02-18T01:26:00;99900;;;6.6;100.0
68320;BME280;55168;51.120;17.024;2023-02-18T01:27:00;99910;;;6.6;100.0
68320;BME280;55168;51.120;17.024;2023-02-18T01:28:00;99890;;;6.5;100.0
68320;BME280;55168;51.120;17.024;2023-02-18T01:29:00;99890;;;6.5;100.0
68320;BME280;55168;51.120;17.024;2023-02-18T01:30:00;99910;;;6.6;100.0
68320;BME280;55168;51.120;17.024;2023-02-18T01:31:04;99890;;;6.6;100.0
68320;BME280;55168;51.120;17.024;2023-02-18T01:32:00;99900;;;6.6;100.0
68320;BME280;55168;51.120;17.024;2023-02-18T01:33:00;99900;;;6.6;100.0
68320;BME280;55168;51.120;17.024;2023-02-18T01:34:00;99900;;;6.6;100.0
68320;BME280;55168;51.120;17.024;2023-02-18T01:35:00;99900;;;6.6;100.0
68320;BME280;55168;51.120;17.024;2023-02-18T01:36:00;99890;;;6.6;100.0
68320;BME280;55168;51.120;17.024;2023-02-18T01:37:00;99910;;;6.6;100.0
68320;BME280;55168;51.120;17.024;2023-02-18T01:38:00;99890;;;6.6;100.0
68320;BME280;55168;51.120;17.024;2023-02-18T01:39:00;99900;;;6.5;100.0
68320;BME280;55168;51.120;17.024;2023-02-18T01:40:00;99880;;;6.5;100.0
68320;BME280;55168;51.120;17.024;2023-02-18T01:41:00;99890;;;6.5;100.0
68320;BME280;55168;51.120;17.024;2023-02-18T01:42:00;99890;;;6.5;100.0
68320;BME280;55168;51.120;17.024;2023-02-18T01:43:00;99900;;;6.5;100.0
68320;BME280;55168;51.120;17.024;2023-02-18T01:44:17;99900;;;6.4;100.0
68320;BME280;55168;51.120;17.024;2023-02-18T01:46:11;99890;;;6.4;100.0
68320;BME280;55168;51.120;17.024;2023-02-18T01:47:00;99890;;;6.4;100.0
68320;BME280;55168;51.120;17.024;2023-02-18T01:48:05;99900;;;6.4;100.0
68320;BME280;55168;51.120;17.024;2023-02-18T01:49:00;99900;;;6.4;100.0
68320;BME280;55168;51.120;17.024;2023-02-18T01:50:00;99890;;;6.4;100.0
68320;BME280;55168;51.120;17.024;2023-02-18T01:51:09;99910;;;6.4;100.0
68320;BME280;55168;51.120;17.024;2023-02-18T01:52:02;99900;;;6.3;100.0
68320;BME280;55168;51.120;17.024;2023-02-18T01:53:00;99910;;;6.3;100.0
68320;BME280;55168;51.120;17.024;2023-02-18T01:55:00;99890;;;6.3;100.0
68320;BME280;55168;51.120;17.024;2023-02-18T01:56:00;99900;;;6.3;100.0
68320;BME280;55168;51.120;17.024;2023-02-18T01:57:01;99900;;;6.3;100.0
68320;BME280;55168;51.120;17.024;2023-02-18T01:58:00;99900;;;6.3;100.0
68320;BME280;55168;51.120;17.024;2023-02-18T01:59:01;99900;;;6.3;100.0
68320;BME280;55168;51.120;17.024;2023-02-18T02:00:05;99910;;;6.3;100.0
68320;BME280;55168;51.120;17.024;2023-02-18T02:01:00;99900;;;6.3;100.0
68320;BME280;55168;51.120;17.024;2023-02-18T02:02:00;99910;;;6.3;100.0
68320;BME280;55168;51.120;17.024;2023-02-18T02:03:00;99900;;;6.3;100.0
68320;BME280;55168;51.120;17.024;2023-02-18T02:04:00;99900;;;6.3;100.0
68320;BME280;55168;51.120;17.024;2023-02-18T02:05:00;99900;;;6.3;100.0
68320;BME280;55168;51.120;17.024;2023-02-18T02:06:00;99910;;;6.3;100.0
68320;BME280;55168;51.120;17.024;2023-02-18T02:07:00;99900;;;6.3;100.0
68320;BME280;55168;51.120;17.024;2023-02-18T02:08:00;99910;;;6.3;100.0
68320;BME280;55168;51.120;17.024;2023-02-18T02:09:01;99900;;;6.3;100.0
68320;BME280;55168;51.120;17.024;2023-02-18T02:10:00;99910;;;6.3;100.0
68320;BME280;55168;51.120;17.024;2023-02-18T02:11:03;99910;;;6.2;100.0
68320;BME280;55168;51.120;17.024;2023-02-18T02:12:11;99910;;;6.3;100.0
68320;BME280;55168;51.120;17.024;2023-02-18T02:13:19;99910;;;6.2;100.0
68320;BME280;55168;51.120;17.024;2023-02-18T02:14:04;99900;;;6.2;100.0
68320;BME280;55168;51.120;17.024;2023-02-18T02:16:18;99900;;;6.2;100.0
68320;BME280;55168;51.120;17.024;2023-02-18T02:17:02;99910;;;6.1;100.0
68320;BME280;55168;51.120;17.024;2023-02-18T02:19:05;99900;;;6.1;100.0
68320;BME280;55168;51.120;17.024;2023-02-18T02:20:06;99910;;;6.1;100.0
68320;BME280;55168;51.120;17.024;2023-02-18T02:22:04;99910;;;6.1;100.0
68320;BME280;55168;51.120;17.024;2023-02-18T02:25:10;99910;;;6.0;100.0
68320;BME280;55168;51.120;17.024;2023-02-18T02:27:10;99910;;;5.9;100.0
68320;BME280;55168;51.120;17.024;2023-02-18T02:30:04;99910;;;5.8;100.0
68320;BME280;55168;51.120;17.024;2023-02-18T02:33:11;99920;;;5.8;100.0
68320;BME280;55168;51.120;17.024;2023-02-18T02:34:20;99930;;;5.8;100.0
68320;BME280;55168;51.120;17.024;2023-02-18T02:36:05;99920;;;5.7;100.0
68320;BME280;55168;51.120;17.024;2023-02-18T02:37:07;99920;;;5.7;100.0
68320;BME280;55168;51.120;17.024;2023-02-18T02:39:07;99920;;;5.7;100.0
68320;BME280;55168;51.120;17.024;2023-02-18T02:40:03;99920;;;5.7;100.0
68320;BME280;55168;51.120;17.024;2023-02-18T02:43:11;99920;;;5.6;100.0
68320;BME280;55168;51.120;17.024;2023-02-18T02:46:02;99910;;;5.6;100.0
68320;BME280;55168;51.120;17.024;2023-02-18T02:47:01;99910;;;5.6;100.0
68320;BME280;55168;51.120;17.024;2023-02-18T02:48:04;99910;;;5.6;100.0
68320;BME280;55168;51.120;17.024;2023-02-18T02:50:03;99920;;;5.6;100.0
68320;BME280;55168;51.120;17.024;2023-02-18T02:53:01;99910;;;5.6;100.0
68320;BME280;55168;51.120;17.024;2023-02-18T02:54:09;99910;;;5.6;100.0
68320;BME280;55168;51.120;17.024;2023-02-18T02:55:02;99920;;;5.6;100.0
68320;BME280;55168;51.120;17.024;2023-02-18T02:56:00;99920;;;5.6;100.0
68320;BME280;55168;51.120;17.024;2023-02-18T02:58:00;99920;;;5.6;100.0
68320;BME280;55168;51.120;17.024;2023-02-18T02:59:00;99910;;;5.6;100.0
68320;BME280;55168;51.120;17.024;2023-02-18T03:00:00;99920;;;5.6;100.0
68320;BME280;55168;51.120;17.024;2023-02-18T03:01:08;99910;;;5.6;100.0
68320;BME280;55168;51.120;17.024;2023-02-18T03:06:10;99920;;;5.6;100.0
68320;BME280;55168;51.120;17.024;2023-02-18T03:07:07;99930;;;5.7;100.0
68320;BME280;55168;51.120;17.024;2023-02-18T03:09:03;99930;;;5.6;100.0
68320;BME280;55168;51.120;17.024;2023-02-18T03:11:02;99930;;;5.6;100.0
68320;BME280;55168;51.120;17.024;2023-02-18T03:12:02;99930;;;5.5;100.0
68320;BME280;55168;51.120;17.024;2023-02-18T03:13:06;99930;;;5.5;100.0
68320;BME280;55168;51.120;17.024;2023-02-18T03:14:05;99930;;;5.4;100.0
68320;BME280;55168;51.120;17.024;2023-02-18T03:15:05;99920;;;5.4;100.0
68320;BME280;55168;51.120;17.024;2023-02-18T03:16:04;99930;;;5.4;100.0
68320;BME280;55168;51.120;17.024;2023-02-18T03:17:02;99930;;;5.5;100.0
68320;BME280;55168;51.120;17.024;2023-02-18T03:18:12;99930;;;5.5;100.0
68320;BME280;55168;51.120;17.024;2023-02-18T03:20:06;99920;;;5.5;100.0
68320;BME280;55168;51.120;17.024;2023-02-18T03:21:03;99930;;;5.5;100.0
68320;BME280;55168;51.120;17.024;2023-02-18T03:22:03;99930;;;5.5;100.0
68320;BME280;55168;51.120;17.024;2023-02-18T03:23:00;99930;;;5.5;100.0
68320;BME280;55168;51.120;17.024;2023-02-18T03:24:01;99930;;;5.5;100.0
68320;BME280;55168;51.120;17.024;2023-02-18T03:25:00;99930;;;5.5;100.0
68320;BME280;55168;51.120;17.024;2023-02-18T03:26:00;99930;;;5.5;100.0
68320;BME280;55168;51.120;17.024;2023-02-18T03:27:04;99940;;;5.4;100.0
68320;BME280;55168;51.120;17.024;2023-02-18T03:28:01;99930;;;5.5;100.0
68320;BME280;55168;51.120;17.024;2023-02-18T03:29:01;99940;;;5.4;100.0
68320;BME280;55168;51.120;17.024;2023-02-18T03:30:02;99950;;;5.4;100.0
68320;BME280;55168;51.120;17.024;2023-02-18T03:31:02;99940;;;5.4;100.0
68320;BME280;55168;51.120;17.024;2023-02-18T03:32:02;99940;;;5.4;100.0
68320;BME280;55168;51.120;17.024;2023-02-18T03:33:02;99940;;;5.4;100.0
68320;BME280;55168;51.120;17.024;2023-02-18T03:34:01;99930;;;5.4;100.0
68320;BME280;55168;51.120;17.024;2023-02-18T03:35:02;99940;;;5.4;100.0
68320;BME280;55168;51.120;17.024;2023-02-18T03:36:00;99940;;;5.4;100.0
68320;BME280;55168;51.120;17.024;2023-02-18T03:37:00;99950;;;5.4;100.0
68320;BME280;55168;51.120;17.024;2023-02-18T03:39:02;99940;;;5.3;100.0
68320;BME280;55168;51.120;17.024;2023-02-18T03:40:00;99950;;;5.3;100.0
68320;BME280;55168;51.120;17.024;2023-02-18T03:41:00;99940;;;5.3;100.0
68320;BME280;55168;51.120;17.024;2023-02-18T03:42:00;99950;;;5.3;100.0
68320;BME280;55168;51.120;17.024;2023-02-18T03:43:00;99950;;;5.3;100.0
68320;BME280;55168;51.120;17.024;2023-02-18T03:44:01;99950;;;5.3;100.0
68320;BME280;55168;51.120;17.024;2023-02-18T03:45:00;99950;;;5.3;100.0
68320;BME280;55168;51.120;17.024;2023-02-18T03:46:00;99960;;;5.3;100.0
68320;BME280;55168;51.120;17.024;2023-02-18T03:47:00;99950;;;5.3;100.0
68320;BME280;55168;51.120;17.024;2023-02-18T03:48:00;99950;;;5.3;100.0
68320;BME280;55168;51.120;17.024;2023-02-18T03:49:00;99960;;;5.3;100.0
68320;BME280;55168;51.120;17.024;2023-02-18T03:50:00;99960;;;5.3;100.0
68320;BME280;55168;51.120;17.024;2023-02-18T03:51:00;99960;;;5.2;100.0
68320;BME280;55168;51.120;17.024;2023-02-18T03:52:00;99970;;;5.3;100.0
68320;BME280;55168;51.120;17.024;2023-02-18T03:53:00;99980;;;5.2;100.0
68320;BME280;55168;51.120;17.024;2023-02-18T03:54:00;99970;;;5.2;100.0
68320;BME280;55168;51.120;17.024;2023-02-18T03:55:00;99980;;;5.2;100.0
68320;BME280;55168;51.120;17.024;2023-02-18T03:56:00;99970;;;5.2;100.0
68320;BME280;55168;51.120;17.024;2023-02-18T03:57:00;99980;;;5.2;100.0
68320;BME280;55168;51.120;17.024;2023-02-18T03:58:00;99970;;;5.2;100.0
68320;BME280;55168;51.120;17.024;2023-02-18T03:59:00;99970;;;5.2;100.0
68320;BME280;55168;51.120;17.024;2023-02-18T04:00:00;99970;;;5.2;100.0
68320;BME280;55168;51.120;17.024;2023-02-18T04:01:00;99980;;;5.2;100.0
68320;BME280;55168;51.120;17.024;2023-02-18T04:02:00;99970;;;5.2;100.0
68320;BME280;55168;51.120;17.024;2023-02-18T04:03:00;99990;;;5.2;100.0
68320;BME280;55168;51.120;17.024;2023-02-18T04:04:00;99980;;;5.2;100.0
68320;BME280;55168;51.120;17.024;2023-02-18T04:05:00;99990;;;5.2;100.0
68320;BME280;55168;51.120;17.024;2023-02-18T04:06:00;99980;;;5.2;100.0
68320;BME280;55168;51.120;17.024;2023-02-18T04:07:00;99990;;;5.2;100.0
68320;BME280;55168;51.120;17.024;2023-02-18T04:08:00;99990;;;5.2;100.0
68320;BME280;55168;51.120;17.024;2023-02-18T04:09:00;99990;;;5.1;100.0
68320;BME280;55168;51.120;17.024;2023-02-18T04:10:00;99970;;;5.1;100.0
68320;BME280;55168;51.120;17.024;2023-02-18T04:11:00;99980;;;5.1;100.0
68320;BME280;55168;51.120;17.024;2023-02-18T04:12:00;99990;;;5.1;100.0
68320;BME280;55168;51.120;17.024;2023-02-18T04:13:00;99990;;;5.1;100.0
68320;BME280;55168;51.120;17.024;2023-02-18T04:14:00;99990;;;5.1;100.0
68320;BME280;55168;51.120;17.024;2023-02-18T04:15:00;99990;;;5.1;100.0
68320;BME280;55168;51.120;17.024;2023-02-18T04:16:00;99990;;;5.0;100.0
68320;BME280;55168;51.120;17.024;2023-02-18T04:17:00;99980;;;5.0;100.0
68320;BME280;55168;51.120;17.024;2023-02-18T04:18:00;99980;;;5.0;100.0
68320;BME280;55168;51.120;17.024;2023-02-18T04:19:00;99980;;;5.0;100.0
68320;BME280;55168;51.120;17.024;2023-02-18T04:20:00;99980;;;4.9;100.0
68320;BME280;55168;51.120;17.024;2023-02-18T04:21:00;99980;;;4.9;100.0
68320;BME280;55168;51.120;17.024;2023-02-18T04:22:00;99970;;;4.9;100.0
68320;BME280;55168;51.120;17.024;2023-02-18T04:23:00;99970;;;4.9;100.0
68320;BME280;55168;51.120;17.024;2023-02-18T04:24:00;99980;;;4.9;100.0
68320;BME280;55168;51.120;17.024;2023-02-18T04:25:00;99980;;;4.9;100.0
68320;BME280;55168;51.120;17.024;2023-02-18T04:26:00;99980;;;4.9;100.0
68320;BME280;55168;51.120;17.024;2023-02-18T04:27:00;99980;;;4.9;100.0
68320;BME280;55168;51.120;17.024;2023-02-18T04:28:00;99980;;;4.9;100.0
68320;BME280;55168;51.120;17.024;2023-02-18T04:29:00;99980;;;4.9;100.0
68320;BME280;55168;51.120;17.024;2023-02-18T04:30:00;99980;;;4.9;100.0
68320;BME280;55168;51.120;17.024;2023-02-18T04:31:00;99990;;;4.8;100.0
68320;BME280;55168;51.120;17.024;2023-02-18T04:32:00;99990;;;4.8;100.0
68320;BME280;55168;51.120;17.024;2023-02-18T04:33:00;99980;;;4.8;100.0
68320;BME280;55168;51.120;17.024;2023-02-18T04:34:00;99980;;;4.8;100.0
68320;BME280;55168;51.120;17.024;2023-02-18T04:35:00;99980;;;4.8;100.0
68320;BME280;55168;51.120;17.024;2023-02-18T04:36:00;99980;;;4.8;100.0
68320;BME280;55168;51.120;17.024;2023-02-18T04:37:00;99980;;;4.8;100.0
68320;BME280;55168;51.120;17.024;2023-02-18T04:38:00;99980;;;4.8;100.0
68320;BME280;55168;51.120;17.024;2023-02-18T04:39:00;99980;;;4.8;100.0
68320;BME280;55168;51.120;17.024;2023-02-18T04:40:00;99990;;;4.8;100.0
68320;BME280;55168;51.120;17.024;2023-02-18T04:41:00;99990;;;4.8;100.0
68320;BME280;55168;51.120;17.024;2023-02-18T04:42:00;99990;;;4.8;100.0
68320;BME280;55168;51.120;17.024;2023-02-18T04:43:00;99980;;;4.8;100.0
68320;BME280;55168;51.120;17.024;2023-02-18T04:44:00;99990;;;4.8;100.0
68320;BME280;55168;51.120;17.024;2023-02-18T04:45:00;99990;;;4.8;100.0
68320;BME280;55168;51.120;17.024;2023-02-18T04:46:00;99990;;;4.8;100.0
68320;BME280;55168;51.120;17.024;2023-02-18T04:47:00;99990;;;4.8;100.0
68320;BME280;55168;51.120;17.024;2023-02-18T04:48:00;99980;;;4.8;100.0
68320;BME280;55168;51.120;17.024;2023-02-18T04:49:00;99980;;;4.8;100.0
68320;BME280;55168;51.120;17.024;2023-02-18T04:50:00;99980;;;4.8;100.0
68320;BME280;55168;51.120;17.024;2023-02-18T04:51:00;99980;;;4.8;100.0
68320;BME280;55168;51.120;17.024;2023-02-18T04:52:00;99980;;;4.9;100.0
68320;BME280;55168;51.120;17.024;2023-02-18T04:53:00;99980;;;4.9;100.0
68320;BME280;55168;51.120;17.024;2023-02-18T04:54:00;99980;;;4.9;100.0
68320;BME280;55168;51.120;17.024;2023-02-18T04:55:00;99980;;;4.9;100.0
68320;BME280;55168;51.120;17.024;2023-02-18T04:56:00;99970;;;4.9;100.0
68320;BME280;55168;51.120;17.024;2023-02-18T04:57:00;99980;;;4.9;100.0
68320;BME280;55168;51.120;17.024;2023-02-18T04:58:00;99980;;;4.9;100.0
68320;BME280;55168;51.120;17.024;2023-02-18T04:59:00;99980;;;4.9;100.0
68320;BME280;55168;51.120;17.024;2023-02-18T05:00:00;99970;;;4.9;100.0
68320;BME280;55168;51.120;17.024;2023-02-18T05:01:00;99980;;;5.0;100.0
68320;BME280;55168;51.120;17.024;2023-02-18T05:02:00;99980;;;5.0;100.0
68320;BME280;55168;51.120;17.024;2023-02-18T05:03:00;99970;;;5.0;100.0
68320;BME280;55168;51.120;17.024;2023-02-18T05:04:00;99970;;;5.0;100.0
68320;BME280;55168;51.120;17.024;2023-02-18T05:05:00;99970;;;5.0;100.0
68320;BME280;55168;51.120;17.024;2023-02-18T05:06:00;99970;;;5.0;100.0
68320;BME280;55168;51.120;17.024;2023-02-18T05:07:00;99970;;;5.0;100.0
68320;BME280;55168;51.120;17.024;2023-02-18T05:08:00;99980;;;5.0;100.0
68320;BME280;55168;51.120;17.024;2023-02-18T05:09:00;99970;;;5.0;100.0
68320;BME280;55168;51.120;17.024;2023-02-18T05:10:00;99970;;;5.0;100.0
68320;BME280;55168;51.120;17.024;2023-02-18T05:11:03;99970;;;5.0;100.0
68320;BME280;55168;51.120;17.024;2023-02-18T05:12:00;99960;;;5.0;100.0
68320;BME280;55168;51.120;17.024;2023-02-18T05:13:00;99970;;;5.0;100.0
68320;BME280;55168;51.120;17.024;2023-02-18T05:14:00;99970;;;5.0;100.0
68320;BME280;55168;51.120;17.024;2023-02-18T05:15:00;99970;;;5.0;100.0
68320;BME280;55168;51.120;17.024;2023-02-18T05:16:00;99970;;;5.0;100.0
68320;BME280;55168;51.120;17.024;2023-02-18T05:17:00;99980;;;5.0;100.0
68320;BME280;55168;51.120;17.024;2023-02-18T05:18:00;99970;;;5.1;100.0
68320;BME280;55168;51.120;17.024;2023-02-18T05:19:00;99980;;;5.1;100.0
68320;BME280;55168;51.120;17.024;2023-02-18T05:20:00;99980;;;5.1;100.0
68320;BME280;55168;51.120;17.024;2023-02-18T05:21:00;99970;;;5.1;100.0
68320;BME280;55168;51.120;17.024;2023-02-18T05:22:00;99980;;;5.1;100.0
68320;BME280;55168;51.120;17.024;2023-02-18T05:23:00;99970;;;5.1;100.0
68320;BME280;55168;51.120;17.024;2023-02-18T05:24:00;99970;;;5.1;100.0
68320;BME280;55168;51.120;17.024;2023-02-18T05:25:00;99980;;;5.1;100.0
68320;BME280;55168;51.120;17.024;2023-02-18T05:26:00;99980;;;5.1;100.0
68320;BME280;55168;51.120;17.024;2023-02-18T05:27:00;99990;;;5.1;100.0
68320;BME280;55168;51.120;17.024;2023-02-18T05:28:00;99980;;;5.1;100.0
68320;BME280;55168;51.120;17.024;2023-02-18T05:29:00;99990;;;5.1;100.0
68320;BME280;55168;51.120;17.024;2023-02-18T05:30:00;99990;;;5.1;100.0
68320;BME280;55168;51.120;17.024;2023-02-18T05:31:00;99990;;;5.1;100.0
68320;BME280;55168;51.120;17.024;2023-02-18T05:32:00;99980;;;5.1;100.0
68320;BME280;55168;51.120;17.024;2023-02-18T05:33:00;99990;;;5.1;100.0
68320;BME280;55168;51.120;17.024;2023-02-18T05:34:00;99980;;;5.1;100.0
68320;BME280;55168;51.120;17.024;2023-02-18T05:35:00;99990;;;5.1;100.0
68320;BME280;55168;51.120;17.024;2023-02-18T05:36:00;99990;;;5.1;100.0
68320;BME280;55168;51.120;17.024;2023-02-18T05:37:00;100000;;;5.2;100.0
68320;BME280;55168;51.120;17.024;2023-02-18T05:38:00;99990;;;5.2;100.0
68320;BME280;55168;51.120;17.024;2023-02-18T05:39:00;100000;;;5.2;100.0
68320;BME280;55168;51.120;17.024;2023-02-18T05:40:00;100000;;;5.2;100.0
68320;BME280;55168;51.120;17.024;2023-02-18T05:41:00;99990;;;5.2;100.0
68320;BME280;55168;51.120;17.024;2023-02-18T05:42:00;100000;;;5.2;100.0
68320;BME280;55168;51.120;17.024;2023-02-18T05:43:00;100000;;;5.3;100.0
68320;BME280;55168;51.120;17.024;2023-02-18T05:44:00;100000;;;5.3;100.0
68320;BME280;55168;51.120;17.024;2023-02-18T05:45:00;100000;;;5.3;100.0
68320;BME280;55168;51.120;17.024;2023-02-18T05:46:00;100000;;;5.3;100.0
68320;BME280;55168;51.120;17.024;2023-02-18T05:47:03;100000;;;5.3;100.0
68320;BME280;55168;51.120;17.024;2023-02-18T05:48:00;100000;;;5.4;100.0
68320;BME280;55168;51.120;17.024;2023-02-18T05:49:00;100010;;;5.4;100.0
68320;BME280;55168;51.120;17.024;2023-02-18T05:50:00;100000;;;5.4;100.0
68320;BME280;55168;51.120;17.024;2023-02-18T05:51:00;100010;;;5.4;100.0
68320;BME280;55168;51.120;17.024;2023-02-18T05:52:00;100010;;;5.4;100.0
68320;BME280;55168;51.120;17.024;2023-02-18T05:53:00;100020;;;5.4;100.0
68320;BME280;55168;51.120;17.024;2023-02-18T05:54:00;100020;;;5.4;100.0
68320;BME280;55168;51.120;17.024;2023-02-18T05:55:00;100020;;;5.5;100.0
68320;BME280;55168;51.120;17.024;2023-02-18T05:56:00;100020;;;5.5;100.0
68320;BME280;55168;51.120;17.024;2023-02-18T05:57:00;100020;;;5.4;100.0
68320;BME280;55168;51.120;17.024;2023-02-18T05:58:00;100020;;;5.5;100.0
68320;BME280;55168;51.120;17.024;2023-02-18T05:59:00;100020;;;5.5;100.0
68320;BME280;55168;51.120;17.024;2023-02-18T06:00:00;100020;;;5.5;100.0
68320;BME280;55168;51.120;17.024;2023-02-18T06:01:00;100020;;;5.5;100.0
68320;BME280;55168;51.120;17.024;2023-02-18T06:02:00;100020;;;5.5;100.0
68320;BME280;55168;51.120;17.024;2023-02-18T06:03:00;100020;;;5.5;100.0
68320;BME280;55168;51.120;17.024;2023-02-18T06:04:00;100020;;;5.5;100.0
68320;BME280;55168;51.120;17.024;2023-02-18T06:05:00;100020;;;5.5;100.0